createdAt,value
2018-08-23T01:31:37.614Z,18.76
2018-08-23T01:31:38.188Z,18.76
2018-08-23T01:31:38.786Z,18.76
2018-08-23T01:31:39.399Z,18.84
2018-08-23T01:31:39.985Z,18.79
2018-08-23T01:31:40.585Z,18.76
2018-08-23T01:31:41.186Z,18.77
2018-08-23T01:31:41.785Z,18.79
2018-08-23T01:32:35.263Z,18.62
2018-08-23T01:32:35.842Z,18.65
2018-08-23T01:32:36.439Z,18.72
2018-08-23T01:32:37.039Z,18.76
2018-08-23T01:32:37.638Z,18.80
2018-08-23T01:32:38.238Z,18.68
2018-08-23T01:32:38.840Z,18.76
2018-08-23T01:32:39.438Z,18.76
2018-08-23T01:33:33.941Z,18.74
2018-08-23T01:33:34.514Z,18.64
2018-08-23T01:33:35.114Z,18.68
2018-08-23T01:33:35.712Z,18.73
2018-08-23T01:33:36.313Z,18.64
2018-08-23T01:33:36.912Z,18.67
2018-08-23T01:33:37.513Z,18.68
2018-08-23T01:33:38.114Z,18.67
2018-08-23T01:34:31.593Z,18.58
2018-08-23T01:34:32.168Z,18.67
2018-08-23T01:34:32.767Z,18.68
2018-08-23T01:34:33.367Z,18.72
2018-08-23T01:34:33.968Z,18.67
2018-08-23T01:34:34.568Z,18.68
2018-08-23T01:34:35.167Z,18.65
2018-08-23T01:34:35.767Z,18.70
2018-08-23T01:35:29.244Z,18.52
2018-08-23T01:35:29.819Z,18.62
2018-08-23T01:35:30.419Z,18.58
2018-08-23T01:35:31.018Z,18.62
2018-08-23T01:35:31.619Z,18.65
2018-08-23T01:35:32.219Z,18.55
2018-08-23T01:35:32.820Z,18.65
2018-08-23T01:35:33.422Z,18.61
2018-08-23T01:36:26.896Z,18.67
2018-08-23T01:36:27.474Z,18.68
2018-08-23T01:36:28.071Z,18.68
2018-08-23T01:36:28.671Z,18.64
2018-08-23T01:36:29.271Z,18.64
2018-08-23T01:36:29.872Z,18.67
2018-08-23T01:36:30.470Z,18.70
2018-08-23T01:36:31.078Z,18.72
2018-08-23T01:37:24.548Z,18.65
2018-08-23T01:37:25.123Z,18.64
2018-08-23T01:37:25.722Z,18.73
2018-08-23T01:37:26.322Z,18.67
2018-08-23T01:37:26.922Z,18.72
2018-08-23T01:37:27.523Z,18.61
2018-08-23T01:37:28.122Z,18.59
2018-08-23T01:37:28.722Z,18.62
2018-08-23T01:38:23.226Z,18.65
2018-08-23T01:38:23.801Z,18.76
2018-08-23T01:38:24.399Z,18.72
2018-08-23T01:38:24.999Z,18.79
2018-08-23T01:38:25.598Z,18.76
2018-08-23T01:38:26.199Z,18.79
2018-08-23T01:38:26.797Z,18.68
2018-08-23T01:38:27.399Z,18.72
2018-08-23T01:39:20.879Z,18.74
2018-08-23T01:39:21.451Z,18.79
2018-08-23T01:39:22.052Z,18.77
2018-08-23T01:39:22.652Z,18.82
2018-08-23T01:39:23.278Z,18.79
2018-08-23T01:39:23.851Z,18.76
2018-08-23T01:39:24.451Z,18.76
2018-08-23T01:39:25.050Z,18.79
2018-08-23T01:40:19.556Z,18.82
2018-08-23T01:40:20.126Z,18.84
2018-08-23T01:40:20.726Z,18.83
2018-08-23T01:40:21.329Z,18.76
2018-08-23T01:40:21.927Z,18.79
2018-08-23T01:40:22.526Z,18.79
2018-08-23T01:40:23.127Z,18.80
2018-08-23T01:40:23.726Z,18.86
2018-08-23T01:41:18.230Z,18.77
2018-08-23T01:41:18.804Z,18.84
2018-08-23T01:41:19.402Z,18.84
2018-08-23T01:41:20.002Z,18.84
2018-08-23T01:41:20.602Z,18.87
2018-08-23T01:41:21.201Z,18.83
2018-08-23T01:41:21.802Z,18.84
2018-08-23T01:41:22.403Z,18.91
2018-08-23T01:42:16.909Z,18.83
2018-08-23T01:42:17.479Z,18.77
2018-08-23T01:42:18.078Z,18.90
2018-08-23T01:42:18.679Z,18.92
2018-08-23T01:42:19.279Z,18.83
2018-08-23T01:42:19.878Z,18.87
2018-08-23T01:42:20.479Z,18.86
2018-08-23T01:42:21.079Z,18.84
2018-08-23T01:43:14.560Z,18.84
2018-08-23T01:43:15.134Z,18.79
2018-08-23T01:43:15.728Z,18.79
2018-08-23T01:43:16.331Z,18.80
2018-08-23T01:43:16.929Z,18.84
2018-08-23T01:43:17.529Z,18.87
2018-08-23T01:43:18.128Z,18.84
2018-08-23T01:43:18.728Z,18.86
2018-08-23T01:44:12.209Z,18.80
2018-08-23T01:44:12.785Z,18.92
2018-08-23T01:44:13.384Z,18.84
2018-08-23T01:44:13.985Z,18.86
2018-08-23T01:44:14.584Z,18.77
2018-08-23T01:44:15.185Z,18.84
2018-08-23T01:44:15.786Z,18.94
2018-08-23T01:44:16.384Z,18.84
2018-08-23T01:45:09.861Z,18.79
2018-08-23T01:45:10.436Z,18.94
2018-08-23T01:45:11.038Z,18.87
2018-08-23T01:45:11.634Z,18.86
2018-08-23T01:45:12.236Z,18.84
2018-08-23T01:45:12.840Z,18.87
2018-08-23T01:45:13.434Z,18.87
2018-08-23T01:45:14.035Z,18.84
2018-08-23T01:46:08.539Z,18.84
2018-08-23T01:46:09.108Z,18.95
2018-08-23T01:46:09.709Z,18.94
2018-08-23T01:46:10.311Z,18.95
2018-08-23T01:46:10.908Z,18.90
2018-08-23T01:46:11.510Z,18.92
2018-08-23T01:46:12.109Z,18.94
2018-08-23T01:46:12.710Z,18.98
2018-08-23T01:47:07.213Z,18.91
2018-08-23T01:47:07.788Z,18.92
2018-08-23T01:47:08.386Z,18.91
2018-08-23T01:47:08.986Z,18.99
2018-08-23T01:47:09.586Z,18.95
2018-08-23T01:47:10.186Z,18.97
2018-08-23T01:47:10.785Z,18.94
2018-08-23T01:47:11.384Z,18.99
2018-08-23T01:48:04.862Z,18.84
2018-08-23T01:48:05.438Z,18.99
2018-08-23T01:48:06.041Z,18.87
2018-08-23T01:48:06.637Z,18.95
2018-08-23T01:48:07.238Z,18.94
2018-08-23T01:48:07.837Z,18.94
2018-08-23T01:48:08.438Z,18.90
2018-08-23T01:48:09.037Z,19.01
2018-08-23T01:49:02.515Z,18.98
2018-08-23T01:49:03.089Z,18.87
2018-08-23T01:49:03.690Z,18.95
2018-08-23T01:49:04.291Z,18.92
2018-08-23T01:49:04.889Z,18.99
2018-08-23T01:49:05.489Z,18.87
2018-08-23T01:49:06.089Z,18.97
2018-08-23T01:49:06.690Z,19.02
2018-08-23T01:50:01.199Z,18.95
2018-08-23T01:50:01.766Z,18.99
2018-08-23T01:50:02.365Z,18.99
2018-08-23T01:50:02.968Z,18.91
2018-08-23T01:50:03.568Z,19.02
2018-08-23T01:50:04.163Z,18.90
2018-08-23T01:50:04.763Z,19.02
2018-08-23T01:50:05.362Z,19.01
2018-08-23T01:50:58.844Z,18.99
2018-08-23T01:50:59.417Z,19.01
2018-08-23T01:51:00.017Z,18.97
2018-08-23T01:51:00.617Z,19.08
2018-08-23T01:51:01.217Z,19.06
2018-08-23T01:51:01.829Z,19.05
2018-08-23T01:51:02.417Z,18.95
2018-08-23T01:51:03.017Z,18.98
2018-08-23T01:51:57.522Z,18.99
2018-08-23T01:51:58.093Z,18.98
2018-08-23T01:51:58.693Z,18.99
2018-08-23T01:51:59.293Z,18.98
2018-08-23T01:51:59.892Z,19.06
2018-08-23T01:52:00.497Z,19.01
2018-08-23T01:52:01.089Z,18.97
2018-08-23T01:52:01.690Z,19.05
2018-08-23T01:52:56.198Z,18.97
2018-08-23T01:52:56.769Z,18.99
2018-08-23T01:52:57.379Z,19.06
2018-08-23T01:52:57.966Z,18.99
2018-08-23T01:52:58.579Z,19.10
2018-08-23T01:52:59.166Z,18.99
2018-08-23T01:52:59.774Z,19.01
2018-08-23T01:53:00.366Z,19.06
2018-08-23T01:53:53.846Z,19.01
2018-08-23T01:53:54.425Z,19.05
2018-08-23T01:53:55.021Z,19.02
2018-08-23T01:53:55.620Z,19.01
2018-08-23T01:53:56.220Z,19.06
2018-08-23T01:53:56.821Z,18.98
2018-08-23T01:53:57.421Z,18.99
2018-08-23T01:53:58.021Z,18.98
2018-08-23T01:54:51.498Z,19.08
2018-08-23T01:54:52.073Z,18.99
2018-08-23T01:54:52.673Z,18.98
2018-08-23T01:54:53.272Z,19.06
2018-08-23T01:54:53.873Z,19.08
2018-08-23T01:54:54.473Z,19.05
2018-08-23T01:54:55.077Z,19.10
2018-08-23T01:54:55.672Z,19.02
2018-08-23T01:55:50.178Z,19.01
2018-08-23T01:55:50.748Z,19.01
2018-08-23T01:55:51.347Z,19.01
2018-08-23T01:55:51.947Z,19.08
2018-08-23T01:55:52.548Z,18.99
2018-08-23T01:55:53.148Z,19.01
2018-08-23T01:55:53.749Z,19.01
2018-08-23T01:55:54.350Z,19.05
2018-08-23T01:56:48.852Z,19.05
2018-08-23T01:56:49.423Z,19.06
2018-08-23T01:56:50.023Z,18.99
2018-08-23T01:56:50.622Z,19.06
2018-08-23T01:56:51.223Z,19.01
2018-08-23T01:56:51.823Z,19.01
2018-08-23T01:56:52.424Z,19.02
2018-08-23T01:56:53.022Z,19.06
2018-08-23T01:57:46.502Z,19.01
2018-08-23T01:57:47.077Z,19.05
2018-08-23T01:57:47.678Z,19.08
2018-08-23T01:57:48.275Z,18.99
2018-08-23T01:57:48.876Z,19.02
2018-08-23T01:57:49.476Z,19.08
2018-08-23T01:57:50.083Z,19.11
2018-08-23T01:57:50.673Z,19.02
2018-08-23T01:58:44.153Z,19.13
2018-08-23T01:58:44.727Z,18.98
2018-08-23T01:58:45.327Z,18.99
2018-08-23T01:58:45.928Z,19.06
2018-08-23T01:58:46.527Z,19.06
2018-08-23T01:58:47.128Z,18.98
2018-08-23T01:58:47.730Z,19.06
2018-08-23T01:58:48.327Z,18.98
2018-08-23T01:59:42.834Z,19.05
2018-08-23T01:59:43.400Z,19.06
2018-08-23T01:59:44.002Z,19.06
2018-08-23T01:59:44.601Z,19.02
2018-08-23T01:59:45.200Z,19.02
2018-08-23T01:59:45.801Z,19.02
2018-08-23T01:59:46.401Z,19.14
2018-08-23T01:59:47.001Z,19.08
2018-08-23T02:00:40.481Z,19.06
2018-08-23T02:00:41.055Z,19.17
2018-08-23T02:00:41.655Z,19.08
2018-08-23T02:00:42.255Z,19.13
2018-08-23T02:00:42.854Z,19.14
2018-08-23T02:00:43.456Z,19.15
2018-08-23T02:00:44.054Z,19.15
2018-08-23T02:00:44.655Z,19.14
2018-08-23T02:01:39.159Z,19.14
2018-08-23T02:01:39.731Z,19.15
2018-08-23T02:01:40.334Z,19.13
2018-08-23T02:01:40.930Z,19.14
2018-08-23T02:01:41.530Z,19.18
2018-08-23T02:01:42.130Z,19.13
2018-08-23T02:01:42.734Z,19.14
2018-08-23T02:01:43.330Z,19.15
2018-08-23T02:02:37.835Z,19.25
2018-08-23T02:02:38.408Z,19.25
2018-08-23T02:02:39.006Z,19.20
2018-08-23T02:02:39.607Z,19.21
2018-08-23T02:02:40.210Z,19.15
2018-08-23T02:02:40.805Z,19.20
2018-08-23T02:02:41.409Z,19.29
2018-08-23T02:02:42.006Z,19.23
2018-08-23T02:03:35.483Z,19.20
2018-08-23T02:03:36.058Z,19.18
2018-08-23T02:03:36.658Z,19.23
2018-08-23T02:03:37.262Z,19.15
2018-08-23T02:03:37.859Z,19.24
2018-08-23T02:03:38.459Z,19.21
2018-08-23T02:03:39.063Z,19.28
2018-08-23T02:03:39.659Z,19.21
2018-08-23T02:04:33.137Z,19.15
2018-08-23T02:04:33.710Z,19.24
2018-08-23T02:04:34.313Z,19.18
2018-08-23T02:04:34.910Z,19.17
2018-08-23T02:04:35.510Z,19.25
2018-08-23T02:04:36.110Z,19.21
2018-08-23T02:04:36.714Z,19.17
2018-08-23T02:04:37.310Z,19.28
2018-08-23T02:05:30.788Z,19.14
2018-08-23T02:05:31.361Z,19.20
2018-08-23T02:05:31.963Z,19.15
2018-08-23T02:05:32.561Z,19.17
2018-08-23T02:05:33.164Z,19.13
2018-08-23T02:05:33.762Z,19.15
2018-08-23T02:05:34.364Z,19.23
2018-08-23T02:05:34.961Z,19.21
2018-08-23T02:06:28.950Z,19.13
2018-08-23T02:06:29.529Z,19.13
2018-08-23T02:06:30.125Z,19.14
2018-08-23T02:06:30.724Z,19.17
2018-08-23T02:06:31.325Z,19.13
2018-08-23T02:06:31.925Z,19.13
2018-08-23T02:06:32.524Z,19.18
2018-08-23T02:07:27.014Z,19.13
2018-08-23T02:07:27.588Z,19.10
2018-08-23T02:07:28.186Z,19.14
2018-08-23T02:07:28.786Z,19.15
2018-08-23T02:07:29.384Z,19.17
2018-08-23T02:07:29.984Z,19.13
2018-08-23T02:07:30.584Z,19.21
2018-08-23T02:07:31.184Z,19.15
2018-08-23T02:08:25.692Z,19.14
2018-08-23T02:08:26.262Z,19.17
2018-08-23T02:08:26.862Z,19.13
2018-08-23T02:08:27.461Z,19.20
2018-08-23T02:08:28.061Z,19.17
2018-08-23T02:08:28.662Z,19.18
2018-08-23T02:08:29.265Z,19.17
2018-08-23T02:08:29.863Z,19.14
2018-08-23T02:09:24.367Z,19.11
2018-08-23T02:09:24.938Z,19.17
2018-08-23T02:09:25.536Z,19.13
2018-08-23T02:09:26.138Z,19.17
2018-08-23T02:09:26.738Z,19.14
2018-08-23T02:09:27.338Z,19.13
2018-08-23T02:09:27.940Z,19.14
2018-08-23T02:09:28.540Z,19.17
2018-08-23T02:10:22.018Z,19.20
2018-08-23T02:10:22.591Z,19.10
2018-08-23T02:10:23.191Z,19.11
2018-08-23T02:10:23.789Z,19.13
2018-08-23T02:10:24.390Z,19.10
2018-08-23T02:10:24.989Z,19.11
2018-08-23T02:10:25.592Z,19.15
2018-08-23T02:10:26.189Z,19.14
2018-08-23T02:11:20.699Z,19.18
2018-08-23T02:11:21.265Z,19.10
2018-08-23T02:11:21.863Z,19.18
2018-08-23T02:11:22.463Z,19.11
2018-08-23T02:11:23.064Z,19.10
2018-08-23T02:11:23.664Z,19.23
2018-08-23T02:11:24.263Z,19.18
2018-08-23T02:11:24.863Z,19.20
2018-08-23T02:12:19.371Z,19.15
2018-08-23T02:12:19.941Z,19.14
2018-08-23T02:12:20.540Z,19.14
2018-08-23T02:12:21.141Z,19.14
2018-08-23T02:12:21.741Z,19.14
2018-08-23T02:12:22.341Z,19.10
2018-08-23T02:12:22.943Z,19.13
2018-08-23T02:12:23.540Z,19.15
2018-08-23T02:13:18.046Z,19.06
2018-08-23T02:13:18.618Z,19.11
2018-08-23T02:13:19.217Z,19.11
2018-08-23T02:13:19.817Z,19.13
2018-08-23T02:13:20.418Z,19.15
2018-08-23T02:13:21.019Z,19.14
2018-08-23T02:13:21.623Z,19.14
2018-08-23T02:13:22.217Z,19.06
2018-08-23T02:14:15.696Z,19.10
2018-08-23T02:14:16.270Z,19.14
2018-08-23T02:14:16.871Z,19.13
2018-08-23T02:14:17.469Z,19.15
2018-08-23T02:14:18.070Z,19.21
2018-08-23T02:14:18.669Z,19.11
2018-08-23T02:14:19.270Z,19.18
2018-08-23T02:14:19.869Z,19.10
2018-08-23T02:15:13.349Z,19.08
2018-08-23T02:15:13.921Z,19.13
2018-08-23T02:15:14.525Z,19.15
2018-08-23T02:15:15.122Z,19.10
2018-08-23T02:15:15.723Z,19.18
2018-08-23T02:15:16.321Z,19.06
2018-08-23T02:15:16.924Z,19.13
2018-08-23T02:15:17.526Z,19.17
2018-08-23T02:16:11.000Z,19.11
2018-08-23T02:16:11.574Z,19.11
2018-08-23T02:16:12.173Z,19.10
2018-08-23T02:16:12.774Z,19.13
2018-08-23T02:16:13.372Z,19.13
2018-08-23T02:16:13.973Z,19.13
2018-08-23T02:16:14.573Z,19.15
2018-08-23T02:16:15.172Z,19.06
2018-08-23T02:17:08.652Z,19.14
2018-08-23T02:17:09.224Z,19.15
2018-08-23T02:17:09.824Z,19.18
2018-08-23T02:17:10.424Z,19.20
2018-08-23T02:17:11.026Z,19.14
2018-08-23T02:17:11.624Z,19.10
2018-08-23T02:17:12.225Z,19.10
2018-08-23T02:17:12.825Z,19.10
2018-08-23T02:18:06.304Z,19.14
2018-08-23T02:18:06.876Z,19.13
2018-08-23T02:18:07.477Z,19.13
2018-08-23T02:18:08.076Z,19.17
2018-08-23T02:18:08.677Z,19.13
2018-08-23T02:18:09.279Z,19.15
2018-08-23T02:18:09.881Z,19.14
2018-08-23T02:18:10.475Z,19.17
2018-08-23T02:19:03.954Z,19.11
2018-08-23T02:19:04.530Z,19.14
2018-08-23T02:19:05.129Z,19.21
2018-08-23T02:19:05.728Z,19.15
2018-08-23T02:19:06.327Z,19.20
2018-08-23T02:19:06.931Z,19.14
2018-08-23T02:19:07.529Z,19.13
2018-08-23T02:19:08.127Z,19.14
2018-08-23T02:20:02.628Z,19.17
2018-08-23T02:20:03.204Z,19.18
2018-08-23T02:20:03.801Z,19.15
2018-08-23T02:20:04.405Z,19.17
2018-08-23T02:20:05.003Z,19.25
2018-08-23T02:20:05.603Z,19.21
2018-08-23T02:20:06.207Z,19.14
2018-08-23T02:20:06.803Z,19.20
2018-08-23T02:21:01.311Z,19.20
2018-08-23T02:21:01.878Z,19.15
2018-08-23T02:21:02.482Z,19.15
2018-08-23T02:21:03.076Z,19.18
2018-08-23T02:21:03.676Z,19.17
2018-08-23T02:21:04.276Z,19.24
2018-08-23T02:21:04.877Z,19.15
2018-08-23T02:21:05.476Z,19.25
2018-08-23T02:21:58.958Z,19.21
2018-08-23T02:21:59.531Z,19.17
2018-08-23T02:22:00.131Z,19.21
2018-08-23T02:22:00.730Z,19.28
2018-08-23T02:22:01.331Z,19.23
2018-08-23T02:22:01.931Z,19.20
2018-08-23T02:22:02.532Z,19.17
2018-08-23T02:22:03.131Z,19.24
2018-08-23T02:22:56.608Z,19.17
2018-08-23T02:22:57.183Z,19.23
2018-08-23T02:22:57.783Z,19.24
2018-08-23T02:22:58.383Z,19.21
2018-08-23T02:22:58.984Z,19.21
2018-08-23T02:22:59.583Z,19.29
2018-08-23T02:23:00.184Z,19.13
2018-08-23T02:23:00.783Z,19.21
2018-08-23T02:23:54.259Z,19.20
2018-08-23T02:23:54.836Z,19.25
2018-08-23T02:23:55.434Z,19.21
2018-08-23T02:23:56.034Z,19.25
2018-08-23T02:23:56.635Z,19.28
2018-08-23T02:23:57.239Z,19.25
2018-08-23T02:23:57.835Z,19.25
2018-08-23T02:23:58.438Z,19.31
2018-08-23T02:24:52.939Z,19.28
2018-08-23T02:24:53.510Z,19.21
2018-08-23T02:24:54.110Z,19.25
2018-08-23T02:24:54.714Z,19.24
2018-08-23T02:24:55.309Z,19.31
2018-08-23T02:24:55.910Z,19.25
2018-08-23T02:24:56.513Z,19.23
2018-08-23T02:24:57.109Z,19.23
2018-08-23T02:25:50.589Z,19.28
2018-08-23T02:25:51.162Z,19.23
2018-08-23T02:25:51.761Z,19.20
2018-08-23T02:25:52.362Z,19.24
2018-08-23T02:25:52.962Z,19.20
2018-08-23T02:25:53.562Z,19.28
2018-08-23T02:25:54.163Z,19.28
2018-08-23T02:25:54.762Z,19.25
2018-08-23T02:26:48.241Z,19.17
2018-08-23T02:26:48.815Z,19.20
2018-08-23T02:26:49.414Z,19.31
2018-08-23T02:26:50.018Z,19.23
2018-08-23T02:26:50.613Z,19.23
2018-08-23T02:26:51.214Z,19.28
2018-08-23T02:26:51.814Z,19.25
2018-08-23T02:26:52.413Z,19.23
2018-08-23T02:27:45.892Z,19.23
2018-08-23T02:27:46.466Z,19.24
2018-08-23T02:27:47.066Z,19.23
2018-08-23T02:27:47.668Z,19.25
2018-08-23T02:27:48.265Z,19.23
2018-08-23T02:27:48.867Z,19.28
2018-08-23T02:27:49.467Z,19.25
2018-08-23T02:27:50.066Z,19.25
2018-08-23T02:28:43.544Z,19.25
2018-08-23T02:28:44.118Z,19.25
2018-08-23T02:28:44.717Z,19.20
2018-08-23T02:28:45.317Z,19.23
2018-08-23T02:28:45.917Z,19.28
2018-08-23T02:28:46.517Z,19.31
2018-08-23T02:28:47.118Z,19.25
2018-08-23T02:28:47.717Z,19.25
2018-08-23T02:29:42.217Z,19.23
2018-08-23T02:29:42.793Z,19.24
2018-08-23T02:29:43.392Z,19.33
2018-08-23T02:29:43.995Z,19.25
2018-08-23T02:29:44.592Z,19.35
2018-08-23T02:29:45.192Z,19.21
2018-08-23T02:29:45.795Z,19.32
2018-08-23T02:29:46.392Z,19.32
2018-08-23T02:30:40.898Z,19.24
2018-08-23T02:30:41.468Z,19.33
2018-08-23T02:30:42.070Z,19.21
2018-08-23T02:30:42.672Z,19.25
2018-08-23T02:30:43.269Z,19.20
2018-08-23T02:30:43.867Z,19.35
2018-08-23T02:30:44.470Z,19.32
2018-08-23T02:30:45.073Z,19.28
2018-08-23T02:31:38.547Z,19.32
2018-08-23T02:31:39.120Z,19.36
2018-08-23T02:31:39.722Z,19.31
2018-08-23T02:31:40.320Z,19.36
2018-08-23T02:31:40.921Z,19.24
2018-08-23T02:31:41.521Z,19.32
2018-08-23T02:31:42.122Z,19.32
2018-08-23T02:31:42.722Z,19.32
2018-08-23T02:32:36.199Z,19.33
2018-08-23T02:32:36.773Z,19.36
2018-08-23T02:32:37.372Z,19.36
2018-08-23T02:32:37.973Z,19.28
2018-08-23T02:32:38.572Z,19.32
2018-08-23T02:32:39.174Z,19.36
2018-08-23T02:32:39.773Z,19.33
2018-08-23T02:32:40.385Z,19.33
2018-08-23T02:33:34.872Z,19.35
2018-08-23T02:33:35.447Z,19.38
2018-08-23T02:33:36.047Z,19.38
2018-08-23T02:33:36.647Z,19.40
2018-08-23T02:33:37.246Z,19.42
2018-08-23T02:33:37.847Z,19.38
2018-08-23T02:33:38.449Z,19.36
2018-08-23T02:33:39.046Z,19.40
2018-08-23T02:34:33.552Z,19.36
2018-08-23T02:34:34.122Z,19.32
2018-08-23T02:34:34.723Z,19.39
2018-08-23T02:34:35.322Z,19.36
2018-08-23T02:34:35.922Z,19.32
2018-08-23T02:34:36.522Z,19.42
2018-08-23T02:34:37.124Z,19.38
2018-08-23T02:34:37.722Z,19.36
2018-08-23T02:35:32.229Z,19.39
2018-08-23T02:35:32.798Z,19.43
2018-08-23T02:35:33.401Z,19.43
2018-08-23T02:35:33.998Z,19.36
2018-08-23T02:35:34.599Z,19.40
2018-08-23T02:35:35.199Z,19.47
2018-08-23T02:35:35.799Z,19.40
2018-08-23T02:35:36.398Z,19.39
2018-08-23T02:36:30.904Z,19.42
2018-08-23T02:36:31.473Z,19.47
2018-08-23T02:36:32.075Z,19.38
2018-08-23T02:36:32.674Z,19.43
2018-08-23T02:36:33.274Z,19.42
2018-08-23T02:36:33.873Z,19.46
2018-08-23T02:36:34.477Z,19.51
2018-08-23T02:36:35.074Z,19.51
2018-08-23T02:37:29.584Z,19.47
2018-08-23T02:37:30.150Z,19.47
2018-08-23T02:37:30.750Z,19.38
2018-08-23T02:37:31.350Z,19.51
2018-08-23T02:37:31.949Z,19.48
2018-08-23T02:37:32.552Z,19.36
2018-08-23T02:37:33.151Z,19.47
2018-08-23T02:37:33.749Z,19.47
2018-08-23T02:38:27.230Z,19.43
2018-08-23T02:38:27.805Z,19.51
2018-08-23T02:38:28.402Z,19.47
2018-08-23T02:38:29.030Z,19.47
2018-08-23T02:38:29.601Z,19.51
2018-08-23T02:38:30.213Z,19.51
2018-08-23T02:38:30.803Z,19.53
2018-08-23T02:38:31.403Z,19.48
2018-08-23T02:39:25.903Z,19.46
2018-08-23T02:39:26.478Z,19.53
2018-08-23T02:39:27.078Z,19.53
2018-08-23T02:39:27.677Z,19.50
2018-08-23T02:39:28.277Z,19.43
2018-08-23T02:39:28.879Z,19.54
2018-08-23T02:39:29.482Z,19.51
2018-08-23T02:39:30.079Z,19.38
2018-08-23T02:40:24.584Z,19.42
2018-08-23T02:40:25.155Z,19.55
2018-08-23T02:40:25.754Z,19.51
2018-08-23T02:40:26.353Z,19.60
2018-08-23T02:40:26.954Z,19.39
2018-08-23T02:40:27.554Z,19.51
2018-08-23T02:40:28.154Z,19.43
2018-08-23T02:40:28.755Z,19.35
2018-08-23T02:41:23.255Z,19.48
2018-08-23T02:41:23.829Z,19.46
2018-08-23T02:41:24.434Z,19.48
2018-08-23T02:41:25.029Z,19.43
2018-08-23T02:41:25.628Z,19.48
2018-08-23T02:41:26.229Z,19.51
2018-08-23T02:41:26.831Z,19.47
2018-08-23T02:41:27.432Z,19.46
2018-08-23T02:42:22.443Z,19.50
2018-08-23T02:42:23.017Z,19.50
2018-08-23T02:42:23.617Z,19.46
2018-08-23T02:42:24.216Z,19.47
2018-08-23T02:42:24.818Z,19.57
2018-08-23T02:42:25.416Z,19.50
2018-08-23T02:43:19.484Z,19.42
2018-08-23T02:43:20.056Z,19.50
2018-08-23T02:43:20.656Z,19.50
2018-08-23T02:43:21.256Z,19.48
2018-08-23T02:43:21.856Z,19.50
2018-08-23T02:43:22.459Z,19.51
2018-08-23T02:43:23.057Z,19.55
2018-08-23T02:43:23.657Z,19.50
2018-08-23T02:44:17.133Z,19.46
2018-08-23T02:44:17.708Z,19.42
2018-08-23T02:44:18.306Z,19.53
2018-08-23T02:44:18.908Z,19.46
2018-08-23T02:44:19.510Z,19.53
2018-08-23T02:44:20.107Z,19.53
2018-08-23T02:44:20.708Z,19.53
2018-08-23T02:44:21.306Z,19.35
2018-08-23T02:45:14.783Z,19.46
2018-08-23T02:45:15.360Z,19.50
2018-08-23T02:45:15.962Z,19.53
2018-08-23T02:45:16.559Z,19.51
2018-08-23T02:45:17.159Z,19.54
2018-08-23T02:45:17.763Z,19.55
2018-08-23T02:45:18.361Z,19.51
2018-08-23T02:45:18.958Z,19.53
2018-08-23T02:46:12.437Z,19.51
2018-08-23T02:46:13.012Z,19.54
2018-08-23T02:46:13.611Z,19.40
2018-08-23T02:46:14.212Z,19.48
2018-08-23T02:46:14.813Z,19.53
2018-08-23T02:46:15.412Z,19.40
2018-08-23T02:46:16.011Z,19.47
2018-08-23T02:46:16.614Z,19.48
2018-08-23T02:47:10.089Z,19.50
2018-08-23T02:47:10.663Z,19.48
2018-08-23T02:47:11.262Z,19.46
2018-08-23T02:47:11.863Z,19.48
2018-08-23T02:47:12.463Z,19.40
2018-08-23T02:47:13.064Z,19.48
2018-08-23T02:47:13.666Z,19.40
2018-08-23T02:47:14.263Z,19.39
2018-08-23T02:48:08.762Z,19.53
2018-08-23T02:48:09.337Z,19.48
2018-08-23T02:48:09.942Z,19.51
2018-08-23T02:48:10.536Z,19.50
2018-08-23T02:48:11.137Z,19.51
2018-08-23T02:48:11.738Z,19.47
2018-08-23T02:48:12.338Z,19.43
2018-08-23T02:48:12.936Z,19.60
2018-08-23T02:49:06.416Z,19.48
2018-08-23T02:49:06.990Z,19.55
2018-08-23T02:49:07.596Z,19.55
2018-08-23T02:49:08.190Z,19.43
2018-08-23T02:49:08.788Z,19.43
2018-08-23T02:49:09.387Z,19.54
2018-08-23T02:49:09.994Z,19.48
2018-08-23T02:49:10.590Z,19.42
2018-08-23T02:50:04.068Z,19.47
2018-08-23T02:50:04.643Z,19.38
2018-08-23T02:50:05.242Z,19.42
2018-08-23T02:50:05.841Z,19.39
2018-08-23T02:50:06.442Z,19.61
2018-08-23T02:50:07.042Z,19.58
2018-08-23T02:50:07.641Z,19.54
2018-08-23T02:50:08.241Z,19.46
2018-08-23T02:51:02.747Z,19.40
2018-08-23T02:51:03.317Z,19.50
2018-08-23T02:51:03.916Z,19.57
2018-08-23T02:51:04.516Z,19.40
2018-08-23T02:51:05.117Z,19.51
2018-08-23T02:51:05.717Z,19.57
2018-08-23T02:51:06.319Z,19.54
2018-08-23T02:51:06.917Z,19.55
2018-08-23T02:52:01.421Z,19.43
2018-08-23T02:52:01.993Z,19.55
2018-08-23T02:52:02.592Z,19.54
2018-08-23T02:52:03.192Z,19.48
2018-08-23T02:52:03.792Z,19.51
2018-08-23T02:52:04.392Z,19.54
2018-08-23T02:52:04.996Z,19.57
2018-08-23T02:52:05.595Z,19.53
2018-08-23T02:52:59.075Z,19.55
2018-08-23T02:52:59.644Z,19.55
2018-08-23T02:53:00.245Z,19.53
2018-08-23T02:53:00.845Z,19.57
2018-08-23T02:53:01.445Z,19.54
2018-08-23T02:53:02.045Z,19.57
2018-08-23T02:53:02.645Z,19.55
2018-08-23T02:53:03.244Z,19.53
2018-08-23T02:53:56.721Z,19.50
2018-08-23T02:53:57.295Z,19.55
2018-08-23T02:53:57.896Z,19.54
2018-08-23T02:53:58.495Z,19.53
2018-08-23T02:53:59.095Z,19.57
2018-08-23T02:53:59.695Z,19.54
2018-08-23T02:54:00.297Z,19.51
2018-08-23T02:54:00.897Z,19.53
2018-08-23T02:54:55.400Z,19.50
2018-08-23T02:54:55.979Z,19.57
2018-08-23T02:54:56.570Z,19.53
2018-08-23T02:54:57.170Z,19.54
2018-08-23T02:54:57.771Z,19.51
2018-08-23T02:54:58.371Z,19.53
2018-08-23T02:54:58.972Z,19.53
2018-08-23T02:54:59.571Z,19.58
2018-08-23T02:55:54.076Z,19.50
2018-08-23T02:55:54.646Z,19.50
2018-08-23T02:55:55.248Z,19.53
2018-08-23T02:55:55.847Z,19.53
2018-08-23T02:55:56.446Z,19.50
2018-08-23T02:55:57.052Z,19.53
2018-08-23T02:55:57.648Z,19.57
2018-08-23T02:55:58.245Z,19.53
2018-08-23T02:56:52.751Z,19.46
2018-08-23T02:56:53.323Z,19.48
2018-08-23T02:56:53.922Z,19.57
2018-08-23T02:56:54.525Z,19.57
2018-08-23T02:56:55.125Z,19.51
2018-08-23T02:56:55.725Z,19.51
2018-08-23T02:56:56.323Z,19.50
2018-08-23T02:56:56.926Z,19.57
2018-08-23T02:57:50.404Z,19.57
2018-08-23T02:57:50.975Z,19.42
2018-08-23T02:57:51.577Z,19.40
2018-08-23T02:57:52.175Z,19.43
2018-08-23T02:57:52.776Z,19.54
2018-08-23T02:57:53.375Z,19.58
2018-08-23T02:57:53.975Z,19.39
2018-08-23T02:57:54.575Z,19.40
2018-08-23T02:58:48.051Z,19.50
2018-08-23T02:58:48.626Z,19.51
2018-08-23T02:58:49.227Z,19.53
2018-08-23T02:58:49.826Z,19.43
2018-08-23T02:58:50.426Z,19.43
2018-08-23T02:58:51.028Z,19.43
2018-08-23T02:58:51.628Z,19.50
2018-08-23T02:58:52.226Z,19.60
2018-08-23T02:59:46.726Z,19.46
2018-08-23T02:59:47.302Z,19.50
2018-08-23T02:59:47.901Z,19.46
2018-08-23T02:59:48.503Z,19.42
2018-08-23T02:59:49.103Z,19.53
2018-08-23T02:59:49.701Z,19.47
2018-08-23T02:59:50.306Z,19.48
2018-08-23T02:59:50.903Z,19.47
2018-08-23T03:00:44.381Z,19.42
2018-08-23T03:00:44.955Z,19.50
2018-08-23T03:00:45.561Z,19.43
2018-08-23T03:00:46.155Z,19.50
2018-08-23T03:00:46.754Z,19.53
2018-08-23T03:00:47.355Z,19.42
2018-08-23T03:00:47.956Z,19.51
2018-08-23T03:00:48.553Z,19.40
2018-08-23T03:01:43.058Z,19.43
2018-08-23T03:01:43.631Z,19.39
2018-08-23T03:01:44.228Z,19.43
2018-08-23T03:01:44.829Z,19.39
2018-08-23T03:01:45.432Z,19.51
2018-08-23T03:01:46.030Z,19.40
2018-08-23T03:01:46.630Z,19.48
2018-08-23T03:01:47.229Z,19.51
2018-08-23T03:02:40.709Z,19.36
2018-08-23T03:02:41.282Z,19.38
2018-08-23T03:02:41.886Z,19.48
2018-08-23T03:02:42.482Z,19.47
2018-08-23T03:02:43.081Z,19.48
2018-08-23T03:02:43.683Z,19.39
2018-08-23T03:02:44.286Z,19.47
2018-08-23T03:02:44.883Z,19.47
2018-08-23T03:03:39.382Z,19.43
2018-08-23T03:03:39.958Z,19.47
2018-08-23T03:03:40.561Z,19.40
2018-08-23T03:03:41.156Z,19.48
2018-08-23T03:03:41.758Z,19.42
2018-08-23T03:03:42.357Z,19.40
2018-08-23T03:03:42.960Z,19.47
2018-08-23T03:03:43.556Z,19.46
2018-08-23T03:04:38.063Z,19.40
2018-08-23T03:04:38.633Z,19.35
2018-08-23T03:04:39.232Z,19.39
2018-08-23T03:04:39.833Z,19.43
2018-08-23T03:04:40.432Z,19.43
2018-08-23T03:04:41.032Z,19.38
2018-08-23T03:04:41.633Z,19.33
2018-08-23T03:04:42.233Z,19.42